Eastern Galaxy — DUCH — position and weather

sailwx.info

Track history (hours):
 
Tides and Currents Weather Stations Pressure Air Temp Water Temp Dewpoint Dewpoint Depression Visibility Wind Speed Wind Dir Waves Ship Positions

Eastern Galaxy

Last reported at 2017-Oct-13 10:29 UTC. Time now 2017-Oct-22 10:19 UTC.
Position N 33°57' E 134°56'.
Warning: this ship's position is 8 days out of date.

Length 100 m; draft 5.7 m.

Type: Cargo ship. MMSI: 548829000.

Date/timePositionNaut miles runAvg speedWind from/ knotsBaromVisibWave heightAir tempDewpointWater temp
2017-Oct-13 10:29N 33°57' E 134°56'613.0
2017-Oct-13 10:00N 34°03' E 134°57'612.8
2017-Oct-13 09:30N 34°10' E 134°57'713.0
2017-Oct-13 08:59N 34°16' E 134°58'611.2
2017-Oct-13 08:29N 34°22' E 135°00'612.0
2017-Oct-13 08:00N 34°26' E 135°05'612.6
2017-Oct-13 07:30N 34°30' E 135°11'612.6
2017-Oct-13 07:00N 34°34' E 135°17'611.4
2017-Oct-13 06:30N 34°38' E 135°22'3 6.5
2017-Oct-13 06:00N 34°39' E 135°26'0 0.1
2017-Oct-13 05:29N 34°39' E 135°26'0 0.0
2017-Oct-13 04:59N 34°39' E 135°26'0 0.0
2017-Oct-13 04:29N 34°39' E 135°26'0 0.0
2017-Oct-13 03:59N 34°39' E 135°26'0 0.0
2017-Oct-13 03:29N 34°39' E 135°26'0 0.0
2017-Oct-13 02:59N 34°39' E 135°26'0 0.0
2017-Oct-13 02:29N 34°39' E 135°26'0 0.0
2017-Oct-13 01:59N 34°39' E 135°26'0 0.0
2017-Oct-13 01:29N 34°39' E 135°26'0 0.0
2017-Oct-13 00:59N 34°39' E 135°26'0 0.0
2017-Oct-13 00:29N 34°39' E 135°26'0 0.0
2017-Oct-12 23:59N 34°39' E 135°26'0 0.0
2017-Oct-12 23:29N 34°39' E 135°26'0 0.0
2017-Oct-12 22:59N 34°39' E 135°26'0 0.0
2017-Oct-12 22:21N 34°39' E 135°26'1 2.1
2017-Oct-12 22:00N 34°39' E 135°25'2 5.0
2017-Oct-12 21:30N 34°38' E 135°22'2 3.4
2017-Oct-12 21:00N 34°36' E 135°21'0 0.3
2017-Oct-12 20:26N 34°36' E 135°21'0 0.0
2017-Oct-12 19:56N 34°36' E 135°21'0 0.0
2017-Oct-12 19:26N 34°36' E 135°21'0 0.0
2017-Oct-12 18:56N 34°36' E 135°21'0 0.0
2017-Oct-12 18:26N 34°36' E 135°21'0 0.0
2017-Oct-12 17:56N 34°36' E 135°21'0 0.0
2017-Oct-12 17:26N 34°36' E 135°21'0 0.0
2017-Oct-12 16:56N 34°36' E 135°21'0 0.0
2017-Oct-12 16:20N 34°36' E 135°21'0 0.0
2017-Oct-12 15:44N 34°36' E 135°21'0 0.0
2017-Oct-12 15:14N 34°36' E 135°21'0 0.0
2017-Oct-12 14:50N 34°36' E 135°21'0 0.3
2017-Oct-12 14:30N 34°36' E 135°21'2 4.8
2017-Oct-12 14:00N 34°35' E 135°19'510.2
2017-Oct-12 13:30N 34°31' E 135°14'611.4
2017-Oct-12 13:00N 34°27' E 135°09'611.3
2017-Oct-12 12:30N 34°23' E 135°05'511.1
2017-Oct-12 12:00N 34°19' E 135°00'510.2
2017-Oct-12 11:30N 34°14' E 134°59'611.7
2017-Oct-12 11:00N 34°08' E 134°59'611.9
2017-Oct-12 10:30N 34°02' E 134°59'611.6
2017-Oct-12 10:00N 33°56' E 134°59'249 7.1
2017-Oct-10 22:59N 35°27' E 139°41'0 0.0
2017-Oct-10 22:23N 35°27' E 139°41'0 0.7
2017-Oct-10 22:00N 35°27' E 139°41'1 0.3
2017-Oct-10 17:05N 35°26' E 139°42'0 0.0
2017-Oct-10 16:41N 35°26' E 139°42'0 0.0
2017-Oct-10 16:05N 35°26' E 139°42'0 0.1
2017-Oct-10 15:59N 35°26' E 139°42'0 0.0
2017-Oct-10 07:45N 35°26' E 139°42'0 1.8
2017-Oct-10 07:30N 35°26' E 139°42'3 5.6
2017-Oct-10 07:00N 35°23' E 139°43'4 8.5
2017-Oct-10 06:30N 35°19' E 139°44'5 9.5
2017-Oct-10 06:00N 35°15' E 139°47'611.1
2017-Oct-10 05:30N 35°09' E 139°46'611.9
2017-Oct-10 05:00N 35°04' E 139°43'612.2
2017-Oct-10 04:30N 35°00' E 139°37'712.6
2017-Oct-10 03:58N 34°56' E 139°31'  
Track history (hours):
 
Tides and Currents Weather Stations Pressure Air Temp Water Temp Dewpoint Dewpoint Depression Visibility Wind Speed Wind Dir Waves Ship Positions

Eastern Galaxy

Last reported at 2017-Oct-13 10:29 UTC. Time now 2017-Oct-22 10:19 UTC.
Position N 33°57' E 134°56'.
Warning: this ship's position is 8 days out of date.

Length 100 m; draft 5.7 m.

Type: Cargo ship. MMSI: 548829000.

Date/timePositionNaut miles runAvg speedWind from/ knotsBaromVisibWave heightAir tempDewpointWater temp
2017-Oct-13 10:29N 33°57' E 134°56'613.0
2017-Oct-13 10:00N 34°03' E 134°57'612.8
2017-Oct-13 09:30N 34°10' E 134°57'713.0
2017-Oct-13 08:59N 34°16' E 134°58'611.2
2017-Oct-13 08:29N 34°22' E 135°00'612.0
2017-Oct-13 08:00N 34°26' E 135°05'612.6
2017-Oct-13 07:30N 34°30' E 135°11'612.6
2017-Oct-13 07:00N 34°34' E 135°17'611.4
2017-Oct-13 06:30N 34°38' E 135°22'3 6.5
2017-Oct-13 06:00N 34°39' E 135°26'0 0.1
2017-Oct-13 05:29N 34°39' E 135°26'0 0.0
2017-Oct-13 04:59N 34°39' E 135°26'0 0.0
2017-Oct-13 04:29N 34°39' E 135°26'0 0.0
2017-Oct-13 03:59N 34°39' E 135°26'0 0.0
2017-Oct-13 03:29N 34°39' E 135°26'0 0.0
2017-Oct-13 02:59N 34°39' E 135°26'0 0.0
2017-Oct-13 02:29N 34°39' E 135°26'0 0.0
2017-Oct-13 01:59N 34°39' E 135°26'0 0.0
2017-Oct-13 01:29N 34°39' E 135°26'0 0.0
2017-Oct-13 00:59N 34°39' E 135°26'0 0.0
2017-Oct-13 00:29N 34°39' E 135°26'0 0.0
2017-Oct-12 23:59N 34°39' E 135°26'0 0.0
2017-Oct-12 23:29N 34°39' E 135°26'0 0.0
2017-Oct-12 22:59N 34°39' E 135°26'0 0.0
2017-Oct-12 22:21N 34°39' E 135°26'1 2.1
2017-Oct-12 22:00N 34°39' E 135°25'2 5.0
2017-Oct-12 21:30N 34°38' E 135°22'2 3.4
2017-Oct-12 21:00N 34°36' E 135°21'0 0.3
2017-Oct-12 20:26N 34°36' E 135°21'0 0.0
2017-Oct-12 19:56N 34°36' E 135°21'0 0.0
2017-Oct-12 19:26N 34°36' E 135°21'0 0.0
2017-Oct-12 18:56N 34°36' E 135°21'0 0.0
2017-Oct-12 18:26N 34°36' E 135°21'0 0.0
2017-Oct-12 17:56N 34°36' E 135°21'0 0.0
2017-Oct-12 17:26N 34°36' E 135°21'0 0.0
2017-Oct-12 16:56N 34°36' E 135°21'0 0.0
2017-Oct-12 16:20N 34°36' E 135°21'0 0.0
2017-Oct-12 15:44N 34°36' E 135°21'0 0.0
2017-Oct-12 15:14N 34°36' E 135°21'0 0.0
2017-Oct-12 14:50N 34°36' E 135°21'0 0.3
2017-Oct-12 14:30N 34°36' E 135°21'2 4.8
2017-Oct-12 14:00N 34°35' E 135°19'510.2
2017-Oct-12 13:30N 34°31' E 135°14'611.4
2017-Oct-12 13:00N 34°27' E 135°09'611.3
2017-Oct-12 12:30N 34°23' E 135°05'511.1
2017-Oct-12 12:00N 34°19' E 135°00'510.2
2017-Oct-12 11:30N 34°14' E 134°59'611.7
2017-Oct-12 11:00N 34°08' E 134°59'611.9
2017-Oct-12 10:30N 34°02' E 134°59'611.6
2017-Oct-12 10:00N 33°56' E 134°59'249 7.1
2017-Oct-10 22:59N 35°27' E 139°41'0 0.0
2017-Oct-10 22:23N 35°27' E 139°41'0 0.7
2017-Oct-10 22:00N 35°27' E 139°41'1 0.3
2017-Oct-10 17:05N 35°26' E 139°42'0 0.0
2017-Oct-10 16:41N 35°26' E 139°42'0 0.0
2017-Oct-10 16:05N 35°26' E 139°42'0 0.1
2017-Oct-10 15:59N 35°26' E 139°42'0 0.0
2017-Oct-10 07:45N 35°26' E 139°42'0 1.8
2017-Oct-10 07:30N 35°26' E 139°42'3 5.6
2017-Oct-10 07:00N 35°23' E 139°43'4 8.5
2017-Oct-10 06:30N 35°19' E 139°44'5 9.5
2017-Oct-10 06:00N 35°15' E 139°47'611.1
2017-Oct-10 05:30N 35°09' E 139°46'611.9
2017-Oct-10 05:00N 35°04' E 139°43'612.2
2017-Oct-10 04:30N 35°00' E 139°37'712.6
2017-Oct-10 03:58N 34°56' E 139°31'  

Dump ship's entire track history